createdAt,value
2022-11-28T00:01:39.308Z,9.40
2022-11-28T00:04:08.984Z,9.30
2022-11-28T00:06:38.584Z,9.30
2022-11-28T00:09:07.158Z,9.40
2022-11-28T00:11:35.197Z,9.40
2022-11-28T00:14:04.527Z,9.40
2022-11-28T00:16:32.617Z,9.40
2022-11-28T00:19:02.255Z,9.40
2022-11-28T00:21:31.206Z,9.40
2022-11-28T00:24:00.282Z,9.40
2022-11-28T00:26:30.614Z,9.50
2022-11-28T00:28:59.715Z,9.50
2022-11-28T00:31:30.895Z,9.50
2022-11-28T00:33:59.055Z,9.50
2022-11-28T00:36:27.069Z,9.50
2022-11-28T00:38:55.565Z,9.50
2022-11-28T00:41:25.617Z,9.70
2022-11-28T00:43:54.002Z,9.50
2022-11-28T00:46:23.476Z,9.60
2022-11-28T00:48:53.839Z,9.60
2022-11-28T00:51:23.432Z,9.60
2022-11-28T00:53:53.190Z,9.60
2022-11-28T00:56:24.118Z,9.70
2022-11-28T00:58:52.657Z,9.70
2022-11-28T01:01:23.024Z,9.70
2022-11-28T01:03:53.875Z,9.70
2022-11-28T01:06:23.258Z,9.70
2022-11-28T01:08:51.391Z,9.80
2022-11-28T01:11:19.959Z,9.80
2022-11-28T01:13:47.970Z,9.80
2022-11-28T01:16:16.488Z,9.90
2022-11-28T01:18:44.426Z,9.90
2022-11-28T01:21:13.791Z,9.90
2022-11-28T01:23:41.640Z,9.90
2022-11-28T01:26:12.503Z,10.00
2022-11-28T01:28:40.474Z,10.10
2022-11-28T01:31:10.815Z,10.00
2022-11-28T01:33:38.774Z,10.00
2022-11-28T01:36:07.634Z,10.00
2022-11-28T01:38:37.069Z,10.10
2022-11-28T01:41:05.640Z,10.10
2022-11-28T01:43:33.570Z,10.10
2022-11-28T01:46:03.240Z,10.20
2022-11-28T01:48:35.357Z,10.10
2022-11-28T01:51:07.984Z,10.10
2022-11-28T01:53:42.749Z,10.10
2022-11-28T01:56:16.274Z,10.10
2022-11-28T01:58:48.699Z,10.10
2022-11-28T02:01:17.570Z,10.20
2022-11-28T02:03:48.141Z,10.20
2022-11-28T02:06:20.091Z,10.20
2022-11-28T02:08:51.979Z,10.30
2022-11-28T02:11:55.986Z,10.30
2022-11-28T02:14:35.870Z,10.20
2022-11-28T02:17:16.338Z,10.30
2022-11-28T02:20:16.695Z,10.30
2022-11-28T02:22:52.186Z,10.20
2022-11-28T02:25:46.617Z,10.30
2022-11-28T02:28:44.821Z,10.30
2022-11-28T02:31:28.849Z,10.30
2022-11-28T02:34:02.048Z,10.30
2022-11-28T02:36:34.261Z,10.30
2022-11-28T02:39:14.669Z,10.30
2022-11-28T02:41:45.945Z,10.30
2022-11-28T02:44:17.576Z,10.30
2022-11-28T02:46:53.708Z,10.30
2022-11-28T02:49:27.463Z,10.30
2022-11-28T02:51:59.286Z,10.40
2022-11-28T02:54:28.463Z,10.40
2022-11-28T02:56:56.625Z,10.50
2022-11-28T02:59:33.037Z,10.40
2022-11-28T03:02:02.526Z,10.40
2022-11-28T03:04:44.566Z,10.40
2022-11-28T03:07:22.382Z,10.40
2022-11-28T03:10:11.632Z,10.50
2022-11-28T03:12:52.729Z,10.40
2022-11-28T03:15:25.878Z,10.40
2022-11-28T03:18:03.350Z,10.40
2022-11-28T03:20:43.500Z,10.40
2022-11-28T03:23:16.281Z,10.40
2022-11-28T03:25:54.764Z,10.40
2022-11-28T03:28:27.002Z,10.50
2022-11-28T03:31:00.098Z,10.40
2022-11-28T03:33:32.939Z,10.40
2022-11-28T03:36:05.797Z,10.40
2022-11-28T03:38:37.287Z,10.40
2022-11-28T03:41:11.791Z,10.30
2022-11-28T03:43:45.818Z,10.40
2022-11-28T03:46:19.583Z,10.40
2022-11-28T03:48:52.255Z,10.30
2022-11-28T03:51:26.947Z,10.30
2022-11-28T03:54:00.291Z,10.30
2022-11-28T03:56:36.739Z,10.30
2022-11-28T03:59:10.827Z,10.30
2022-11-28T04:01:45.758Z,10.30
2022-11-28T04:04:23.969Z,10.30
2022-11-28T04:06:58.622Z,10.30
2022-11-28T04:09:38.847Z,10.30
2022-11-28T04:12:11.366Z,10.20
2022-11-28T04:14:45.326Z,10.20
2022-11-28T04:17:20.654Z,10.30
2022-11-28T04:19:52.973Z,10.30
2022-11-28T04:22:28.119Z,10.20
2022-11-28T04:25:00.935Z,10.20
2022-11-28T04:27:33.077Z,10.20
2022-11-28T04:30:04.158Z,10.20
2022-11-28T04:32:35.518Z,10.30
2022-11-28T04:35:07.399Z,10.20
2022-11-28T04:37:40.566Z,10.20
2022-11-28T04:40:11.886Z,10.30
2022-11-28T04:42:45.667Z,10.30
2022-11-28T04:45:17.758Z,10.30
2022-11-28T04:47:46.574Z,10.30
2022-11-28T04:50:14.744Z,10.30
2022-11-28T04:52:52.765Z,10.20
2022-11-28T04:55:29.623Z,10.20
2022-11-28T04:58:03.403Z,10.20
2022-11-28T05:00:34.347Z,10.20
2022-11-28T05:03:02.907Z,10.20
2022-11-28T05:05:31.162Z,10.10
2022-11-28T05:08:00.608Z,10.10
2022-11-28T05:10:28.556Z,10.20
2022-11-28T05:12:56.932Z,10.30
2022-11-28T05:15:24.846Z,10.20
2022-11-28T05:17:53.178Z,10.10
2022-11-28T05:20:21.036Z,10.20
2022-11-28T05:22:49.116Z,10.30
2022-11-28T05:25:18.895Z,10.20
2022-11-28T05:27:46.861Z,10.30
2022-11-28T05:30:15.539Z,10.30
2022-11-28T05:32:43.605Z,10.30
2022-11-28T05:35:11.725Z,10.40
2022-11-28T05:37:39.895Z,10.40
2022-11-28T05:40:08.877Z,10.40
2022-11-28T05:42:38.255Z,10.40
2022-11-28T05:45:06.656Z,10.40
2022-11-28T05:47:35.063Z,10.40
2022-11-28T05:50:02.997Z,10.40
2022-11-28T05:52:32.346Z,10.50
2022-11-28T05:55:01.454Z,10.60
2022-11-28T05:57:32.084Z,10.50
2022-11-28T06:00:01.701Z,10.30
2022-11-28T06:02:29.905Z,10.40
2022-11-28T06:04:59.965Z,10.40
2022-11-28T06:07:32.687Z,10.40
2022-11-28T06:10:00.640Z,10.40
2022-11-28T06:12:28.703Z,10.40
2022-11-28T06:14:56.707Z,10.30
2022-11-28T06:17:26.089Z,10.30
2022-11-28T06:19:53.973Z,10.30
2022-11-28T06:22:21.946Z,10.40
2022-11-28T06:24:50.799Z,10.30
2022-11-28T06:27:18.862Z,10.30
2022-11-28T06:29:46.664Z,10.30
2022-11-28T06:32:17.667Z,10.40
2022-11-28T06:34:51.078Z,10.40
2022-11-28T06:37:18.936Z,10.40
2022-11-28T06:39:47.022Z,10.40
2022-11-28T06:42:16.155Z,10.50
2022-11-28T06:44:44.228Z,10.40
2022-11-28T06:47:12.151Z,10.50
2022-11-28T06:49:40.194Z,10.40
2022-11-28T06:52:09.604Z,10.50
2022-11-28T06:54:37.511Z,10.50
2022-11-28T06:57:05.497Z,10.60
2022-11-28T06:59:33.678Z,10.50
2022-11-28T07:02:07.469Z,10.50
2022-11-28T07:04:36.010Z,10.50
2022-11-28T07:07:04.094Z,10.50
2022-11-28T07:09:33.705Z,10.70
2022-11-28T07:12:01.812Z,10.50
2022-11-28T07:14:30.013Z,10.50
2022-11-28T07:16:58.240Z,10.50
2022-11-28T07:19:26.229Z,10.50
2022-11-28T07:21:54.231Z,10.60
2022-11-28T07:24:22.312Z,10.60
2022-11-28T07:26:52.914Z,10.60
2022-11-28T07:29:20.842Z,10.60
2022-11-28T07:31:49.116Z,10.70
2022-11-28T07:34:17.664Z,10.60
2022-11-28T07:36:47.258Z,10.70
2022-11-28T07:39:17.854Z,10.60
2022-11-28T07:41:45.987Z,10.70
2022-11-28T07:44:17.902Z,10.70
2022-11-28T07:46:46.609Z,10.70
2022-11-28T07:49:15.061Z,10.60
2022-11-28T07:51:43.368Z,10.70
2022-11-28T07:54:11.857Z,10.70
2022-11-28T07:57:12.301Z,10.70
2022-11-28T07:59:32.956Z,10.70
2022-11-28T08:02:00.869Z,10.70
2022-11-28T08:04:28.916Z,10.80
2022-11-28T08:06:57.004Z,10.80
2022-11-28T08:09:25.041Z,10.80
2022-11-28T08:11:53.099Z,10.90
2022-11-28T08:14:21.105Z,10.90
2022-11-28T08:16:51.032Z,10.90
2022-11-28T08:19:22.989Z,11.00
2022-11-28T08:21:53.036Z,10.90
2022-11-28T08:24:20.978Z,11.00
2022-11-28T08:26:48.860Z,11.00
2022-11-28T08:29:16.851Z,11.00
2022-11-28T08:31:44.855Z,11.00
2022-11-28T08:34:14.276Z,11.00
2022-11-28T08:36:43.424Z,11.10
2022-11-28T08:39:27.793Z,11.10
2022-11-28T08:41:58.877Z,11.10
2022-11-28T08:44:30.364Z,11.20
2022-11-28T08:46:58.654Z,11.10
2022-11-28T08:49:28.466Z,11.20
2022-11-28T08:51:56.674Z,11.10
2022-11-28T08:54:24.641Z,11.20
2022-11-28T08:56:52.617Z,11.30
2022-11-28T08:59:21.013Z,11.20
2022-11-28T09:01:49.018Z,11.20
2022-11-28T09:04:17.013Z,11.30
2022-11-28T09:06:46.403Z,11.30
2022-11-28T09:09:14.445Z,11.30
2022-11-28T09:11:43.216Z,11.30
2022-11-28T09:14:11.172Z,11.30
2022-11-28T09:16:39.489Z,11.40
2022-11-28T09:19:09.235Z,11.30
2022-11-28T09:21:37.408Z,11.50
2022-11-28T09:24:09.371Z,11.30
2022-11-28T09:26:37.352Z,11.50
2022-11-28T09:29:05.486Z,11.50
2022-11-28T09:31:33.530Z,11.50
2022-11-28T09:34:03.466Z,11.60
2022-11-28T09:36:33.003Z,11.60
2022-11-28T09:39:01.848Z,11.60
2022-11-28T09:41:57.677Z,11.60
2022-11-28T09:44:38.483Z,11.60
2022-11-28T09:47:14.999Z,11.60
2022-11-28T09:49:47.616Z,11.60
2022-11-28T09:52:33.264Z,11.60
2022-11-28T09:55:13.125Z,11.60
2022-11-28T09:57:46.410Z,11.60
2022-11-28T10:00:21.607Z,11.60
2022-11-28T10:03:15.338Z,11.60
2022-11-28T10:05:47.579Z,11.50
2022-11-28T10:08:24.231Z,11.70
2022-11-28T10:11:03.438Z,11.60
2022-11-28T10:14:06.498Z,11.60
2022-11-28T10:16:42.788Z,11.60
2022-11-28T10:19:31.662Z,11.80
2022-11-28T10:22:05.764Z,11.70
2022-11-28T10:24:39.586Z,11.70
2022-11-28T10:27:08.332Z,11.70
2022-11-28T10:29:47.199Z,11.60
2022-11-28T10:32:19.035Z,11.60
2022-11-28T10:34:54.687Z,11.70
2022-11-28T10:37:26.758Z,11.70
2022-11-28T10:39:56.459Z,11.60
2022-11-28T10:42:33.848Z,11.70
2022-11-28T10:45:17.430Z,11.80
2022-11-28T10:48:29.544Z,11.80
2022-11-28T10:50:54.242Z,11.90
2022-11-28T10:53:35.314Z,11.90
2022-11-28T10:56:14.806Z,11.90
2022-11-28T10:58:52.156Z,12.00
2022-11-28T11:01:22.087Z,12.10
2022-11-28T11:03:50.954Z,12.10
2022-11-28T11:06:19.462Z,12.00
2022-11-28T11:08:50.579Z,12.20
2022-11-28T11:11:27.807Z,12.10
2022-11-28T11:13:59.975Z,12.30
2022-11-28T11:16:48.355Z,12.30
2022-11-28T11:19:25.404Z,12.30
2022-11-28T11:22:01.880Z,12.10
2022-11-28T11:24:29.846Z,12.10
2022-11-28T11:27:06.082Z,12.10
2022-11-28T11:29:36.724Z,12.20
2022-11-28T11:32:19.456Z,12.20
2022-11-28T11:34:48.400Z,12.20
2022-11-28T11:37:32.733Z,12.10
2022-11-28T11:40:01.790Z,12.30
2022-11-28T11:42:31.704Z,12.30
2022-11-28T11:45:27.448Z,12.30
2022-11-28T11:47:56.984Z,12.40
2022-11-28T11:50:28.314Z,12.40
2022-11-28T11:53:05.095Z,12.50
2022-11-28T11:55:38.541Z,12.70
2022-11-28T11:58:08.384Z,12.60
2022-11-28T12:00:39.586Z,12.60
2022-11-28T12:03:17.484Z,12.60
2022-11-28T12:06:13.333Z,12.60
2022-11-28T12:08:45.276Z,12.60
2022-11-28T12:11:17.854Z,12.70
2022-11-28T12:13:45.823Z,12.80
2022-11-28T12:16:31.444Z,12.90
2022-11-28T12:19:11.590Z,13.10
2022-11-28T12:21:48.395Z,12.90
2022-11-28T12:24:18.441Z,12.90
2022-11-28T12:26:49.875Z,12.90
2022-11-28T12:29:38.782Z,12.70
2022-11-28T12:32:22.190Z,12.90
2022-11-28T12:35:03.702Z,12.90
2022-11-28T12:40:41.250Z,13.00
2022-11-28T12:43:22.925Z,13.10
2022-11-28T12:46:00.022Z,13.30
2022-11-28T12:48:42.720Z,13.20
2022-11-28T12:51:23.335Z,13.30
2022-11-28T12:54:28.008Z,13.40
2022-11-28T15:32:43.752Z,12.10
2022-11-28T15:35:44.880Z,12.20
2022-11-28T15:38:50.782Z,12.00
2022-11-28T15:42:02.326Z,11.90
2022-11-28T15:45:02.381Z,11.90
2022-11-28T15:51:15.964Z,11.90
2022-11-28T15:54:18.908Z,11.80
2022-11-28T16:34:46.595Z,11.40
2022-11-28T16:56:01.436Z,11.20
2022-11-28T16:58:44.870Z,11.20
2022-11-28T17:01:50.602Z,11.20
2022-11-28T17:05:11.838Z,11.20
2022-11-28T17:08:26.107Z,11.20
2022-11-28T17:11:42.849Z,11.30
2022-11-28T17:18:27.623Z,11.30
2022-11-28T17:21:21.862Z,11.40
2022-11-28T17:24:47.137Z,11.30
2022-11-28T17:27:48.712Z,11.20
2022-11-28T17:30:53.096Z,11.10
2022-11-28T17:33:23.101Z,11.10
2022-11-28T17:36:10.510Z,11.30
2022-11-28T17:38:50.983Z,11.10
2022-11-28T17:41:19.396Z,11.30
2022-11-28T17:43:54.361Z,11.20
2022-11-28T17:46:34.882Z,11.10
2022-11-28T17:49:28.001Z,11.10
2022-11-28T17:55:20.894Z,11.10
2022-11-28T17:57:56.806Z,11.10
2022-11-28T18:01:00.177Z,11.10
2022-11-28T18:03:41.963Z,11.10
2022-11-28T18:09:53.210Z,11.10
2022-11-28T18:16:51.473Z,11.10
2022-11-28T18:22:43.619Z,11.10
2022-11-28T18:25:29.212Z,11.10
2022-11-28T18:34:45.826Z,10.90
2022-11-28T18:41:45.942Z,11.10
2022-11-28T18:44:45.753Z,11.00
2022-11-28T18:47:19.991Z,10.80
2022-11-28T18:49:58.603Z,10.90
2022-11-28T18:52:34.080Z,10.90
2022-11-28T18:56:51.835Z,10.90
2022-11-28T18:59:25.840Z,11.00
2022-11-28T19:02:12.297Z,10.90
2022-11-28T19:04:50.138Z,10.90
2022-11-28T19:07:54.463Z,10.90
2022-11-28T19:10:29.940Z,11.00
2022-11-28T19:13:01.384Z,10.80
2022-11-28T19:15:29.971Z,11.00
2022-11-28T19:18:25.878Z,10.90
2022-11-28T19:21:06.957Z,10.80
2022-11-28T19:23:37.540Z,10.80
2022-11-28T19:26:13.506Z,10.70
2022-11-28T19:29:02.113Z,10.70
2022-11-28T19:31:47.065Z,10.70
2022-11-28T19:34:28.829Z,10.70
2022-11-28T19:37:04.312Z,10.70
2022-11-28T19:39:36.796Z,10.70
2022-11-28T19:42:07.928Z,10.60
2022-11-28T19:44:39.406Z,10.60
2022-11-28T19:47:14.211Z,10.60
2022-11-28T19:49:44.113Z,10.40
2022-11-28T19:52:15.577Z,10.50
2022-11-28T19:54:43.693Z,10.50
2022-11-28T19:58:30.041Z,10.40
2022-11-28T20:01:05.799Z,10.40
2022-11-28T20:03:50.094Z,10.40
2022-11-28T20:06:32.116Z,10.50
2022-11-28T20:09:09.747Z,10.40
2022-11-28T20:11:42.735Z,10.30
2022-11-28T20:14:17.050Z,10.30
2022-11-28T20:19:52.888Z,10.30
2022-11-28T20:22:30.350Z,10.20
2022-11-28T20:26:01.994Z,10.20
2022-11-28T20:32:45.998Z,10.10
2022-11-28T20:35:36.480Z,10.20
2022-11-28T20:38:20.751Z,10.00
2022-11-28T20:41:13.924Z,9.90
2022-11-28T20:43:48.963Z,9.80
2022-11-28T20:46:54.635Z,9.70
2022-11-28T20:49:26.128Z,9.70
2022-11-28T20:52:03.317Z,9.80
2022-11-28T20:54:48.098Z,9.60
2022-11-28T20:57:24.918Z,9.50
2022-11-28T21:00:04.580Z,9.50
2022-11-28T21:02:48.203Z,9.50
2022-11-28T21:05:29.763Z,9.50
2022-11-28T21:08:12.132Z,9.50
2022-11-28T21:10:53.605Z,9.50
2022-11-28T21:13:31.606Z,9.40
2022-11-28T21:16:23.415Z,9.40
2022-11-28T21:19:08.998Z,9.40
2022-11-28T21:21:49.244Z,9.40
2022-11-28T21:24:30.487Z,9.40
2022-11-28T21:27:10.589Z,9.40
2022-11-28T21:29:52.344Z,9.20
2022-11-28T21:32:26.310Z,9.30
2022-11-28T21:35:15.322Z,9.20
2022-11-28T21:37:45.799Z,9.30
2022-11-28T21:40:24.099Z,9.20
2022-11-28T21:42:54.341Z,9.30
2022-11-28T21:45:26.210Z,9.20
2022-11-28T21:48:01.957Z,9.20
2022-11-28T21:50:47.478Z,9.10
2022-11-28T21:53:16.957Z,9.10
2022-11-28T21:55:47.833Z,9.10
2022-11-28T21:58:53.615Z,9.10
2022-11-28T22:01:59.257Z,9.00
2022-11-28T22:04:47.844Z,9.00
2022-11-28T22:07:35.909Z,8.90
2022-11-28T22:10:32.870Z,8.90
2022-11-28T22:13:09.418Z,8.90
2022-11-28T22:16:02.324Z,8.80
2022-11-28T22:18:35.101Z,8.90
2022-11-28T22:24:50.964Z,8.90
2022-11-28T22:28:03.023Z,8.90
2022-11-28T22:30:34.569Z,9.00
2022-11-28T22:33:25.369Z,8.80
2022-11-28T22:36:18.055Z,8.70
2022-11-28T22:39:09.239Z,8.70
2022-11-28T22:41:45.010Z,8.70
2022-11-28T22:44:23.950Z,8.60
2022-11-28T22:47:00.341Z,8.60
2022-11-28T22:49:38.137Z,8.60
2022-11-28T22:52:09.826Z,8.50
2022-11-28T22:54:41.206Z,8.50
2022-11-28T22:57:16.344Z,8.50
2022-11-28T23:00:11.284Z,8.50
2022-11-28T23:02:46.414Z,8.40
2022-11-28T23:05:19.956Z,8.40
2022-11-28T23:08:28.179Z,8.40
2022-11-28T23:15:03.511Z,8.40
2022-11-28T23:17:36.606Z,8.50
2022-11-28T23:20:05.689Z,8.30
2022-11-28T23:22:50.924Z,8.30
2022-11-28T23:25:22.928Z,8.10
2022-11-28T23:27:58.000Z,8.10
2022-11-28T23:30:35.556Z,8.10
2022-11-28T23:33:05.389Z,8.00
2022-11-28T23:35:39.695Z,8.00
2022-11-28T23:38:11.036Z,8.00
2022-11-28T23:40:43.955Z,7.90
2022-11-28T23:43:16.152Z,7.90
2022-11-28T23:45:46.301Z,7.80
2022-11-28T23:48:25.133Z,8.10
2022-11-28T23:51:00.112Z,8.00
2022-11-28T23:53:32.959Z,8.00
2022-11-28T23:56:05.492Z,8.10
2022-11-28T23:58:36.678Z,8.00
